Belize City, Belize
Current Conditions -  °F | °C
As of 2:41 PM on Tuesday 21 Oct 2014 (Local Time) from MMCM Reporting Station
Scattered Clouds Scattered Clouds  
Wind Chill: 86°   Ceiling: Unl
Heat Index: 97°   Visibility: 7mi
Dew Point: 77°   Wind: 14mph
Humidity: 74%   Direction: 120°ESE
Pressure: 29.66"   Gusts: NA
Location:  17.5°N, 88.19°W
Report Text: MMCM 212041Z 12012KT 7SM SCT020 SCT090 SCT210 30/25 A2966 RMK SLP045 5//// 987 8/531 RTS
Loading
Personal Weather Stations






























Interactive Weather Map
Tropical Storm Tracking
New forecast layout! Learn more

10-Day Weather Forecast

Advertisements
Track Severe Weather on mobile